createdAt,value
2023-03-11T00:00:49.894Z,6.48
2023-03-11T00:03:20.144Z,6.27
2023-03-11T00:05:49.899Z,6.21
2023-03-11T00:08:21.124Z,6.39
2023-03-11T00:10:53.607Z,6.22
2023-03-11T00:13:21.976Z,6.26
2023-03-11T00:15:55.760Z,6.11
2023-03-11T00:18:26.990Z,6.29
2023-03-11T00:20:57.609Z,6.36
2023-03-11T00:23:27.368Z,6.48
2023-03-11T00:25:56.257Z,6.33
2023-03-11T00:28:26.583Z,6.23
2023-03-11T00:30:55.135Z,6.17
2023-03-11T00:33:23.652Z,6.17
2023-03-11T00:35:51.932Z,6.12
2023-03-11T00:38:22.780Z,6.19
2023-03-11T00:40:51.298Z,6.19
2023-03-11T00:43:19.728Z,6.15
2023-03-11T00:45:48.285Z,6.10
2023-03-11T00:48:16.510Z,6.15
2023-03-11T00:50:44.997Z,6.19
2023-03-11T00:53:13.186Z,6.30
2023-03-11T00:55:42.817Z,6.30
2023-03-11T00:58:15.941Z,6.29
2023-03-11T01:00:48.131Z,6.31
2023-03-11T01:03:16.167Z,6.15
2023-03-11T01:05:46.073Z,6.17
2023-03-11T01:08:14.172Z,6.15
2023-03-11T01:10:43.560Z,6.19
2023-03-11T01:13:11.590Z,6.25
2023-03-11T01:15:40.031Z,6.27
2023-03-11T01:18:10.054Z,6.28
2023-03-11T01:20:39.765Z,6.17
2023-03-11T01:23:09.056Z,6.07
2023-03-11T01:25:37.946Z,6.14
2023-03-11T01:28:09.253Z,6.02
2023-03-11T01:30:40.665Z,6.10
2023-03-11T01:33:15.373Z,5.99
2023-03-11T01:35:44.203Z,6.02
2023-03-11T01:38:37.553Z,5.97
2023-03-11T01:41:07.133Z,5.92
2023-03-11T01:43:57.915Z,6.04
2023-03-11T01:46:34.845Z,5.92
2023-03-11T01:49:05.802Z,5.92
2023-03-11T01:51:42.106Z,6.05
2023-03-11T01:54:17.313Z,6.11
2023-03-11T01:56:46.330Z,6.05
2023-03-11T01:59:20.398Z,6.11
2023-03-11T02:01:59.591Z,5.90
2023-03-11T02:04:29.409Z,5.94
2023-03-11T02:06:58.264Z,5.87
2023-03-11T02:09:27.524Z,6.03
2023-03-11T02:11:56.359Z,6.03
2023-03-11T02:14:27.237Z,5.90
2023-03-11T02:16:56.149Z,5.91
2023-03-11T02:19:38.385Z,5.66
2023-03-11T02:22:07.088Z,5.70
2023-03-11T02:24:41.869Z,5.65
2023-03-11T02:27:16.173Z,5.67
2023-03-11T02:29:50.317Z,5.70
2023-03-11T02:32:20.536Z,5.79
2023-03-11T02:34:48.641Z,5.83
2023-03-11T02:37:18.422Z,5.78
2023-03-11T02:39:55.958Z,5.90
2023-03-11T02:42:29.588Z,5.69
2023-03-11T02:45:04.095Z,5.61
2023-03-11T02:47:33.272Z,5.60
2023-03-11T02:50:01.300Z,5.65
2023-03-11T02:52:32.897Z,5.67
2023-03-11T02:55:01.016Z,5.69
2023-03-11T02:57:30.488Z,5.76
2023-03-11T02:59:59.932Z,5.74
2023-03-11T03:02:27.915Z,5.61
2023-03-11T03:04:56.000Z,5.68
2023-03-11T03:07:24.462Z,5.63
2023-03-11T03:09:52.551Z,5.55
2023-03-11T03:12:20.654Z,5.66
2023-03-11T03:14:50.913Z,5.60
2023-03-11T03:17:19.657Z,5.55
2023-03-11T03:19:48.691Z,5.40
2023-03-11T03:22:16.916Z,5.39
2023-03-11T03:24:46.150Z,5.51
2023-03-11T03:27:14.194Z,5.49
2023-03-11T03:29:42.168Z,5.49
2023-03-11T03:32:11.757Z,5.54
2023-03-11T03:34:39.788Z,5.45
2023-03-11T03:37:08.269Z,5.42
2023-03-11T03:39:36.686Z,5.45
2023-03-11T03:42:05.457Z,5.58
2023-03-11T03:44:36.009Z,5.37
2023-03-11T03:47:04.044Z,5.43
2023-03-11T03:49:33.660Z,5.38
2023-03-11T03:52:02.385Z,5.39
2023-03-11T03:54:33.251Z,5.36
2023-03-11T03:57:01.948Z,5.39
2023-03-11T03:59:32.238Z,5.28
2023-03-11T04:02:02.264Z,5.17
2023-03-11T04:04:33.152Z,5.32
2023-03-11T04:07:01.332Z,5.27
2023-03-11T04:09:30.305Z,5.25
2023-03-11T04:11:59.858Z,5.25
2023-03-11T04:14:28.228Z,5.29
2023-03-11T04:17:00.264Z,5.24
2023-03-11T04:19:28.890Z,5.26
2023-03-11T04:21:58.967Z,5.27
2023-03-11T04:24:28.256Z,5.25
2023-03-11T04:26:56.567Z,5.15
2023-03-11T04:29:24.713Z,5.15
2023-03-11T04:31:54.764Z,5.12
2023-03-11T04:34:22.899Z,5.14
2023-03-11T04:36:54.014Z,5.05
2023-03-11T04:39:27.102Z,4.97
2023-03-11T04:41:55.816Z,4.99
2023-03-11T04:44:26.331Z,4.90
2023-03-11T04:46:54.448Z,4.93
2023-03-11T04:49:23.277Z,4.94
2023-03-11T04:51:53.188Z,5.00
2023-03-11T04:54:23.537Z,4.97
2023-03-11T04:56:54.095Z,5.04
2023-03-11T04:59:23.277Z,5.02
2023-03-11T05:01:52.870Z,4.95
2023-03-11T05:04:21.102Z,4.95
2023-03-11T05:06:51.059Z,5.00
2023-03-11T05:09:19.504Z,5.02
2023-03-11T05:11:47.634Z,4.96
2023-03-11T05:14:19.680Z,4.99
2023-03-11T05:16:48.140Z,4.93
2023-03-11T05:19:31.654Z,4.77
2023-03-11T05:22:03.724Z,4.82
2023-03-11T05:24:32.754Z,4.80
2023-03-11T05:27:01.388Z,4.80
2023-03-11T05:29:31.178Z,4.84
2023-03-11T05:32:00.062Z,4.90
2023-03-11T05:34:28.282Z,4.84
2023-03-11T05:36:56.441Z,4.83
2023-03-11T05:39:25.342Z,4.92
2023-03-11T05:41:53.754Z,4.86
2023-03-11T05:44:21.808Z,4.96
2023-03-11T05:46:51.368Z,4.88
2023-03-11T05:49:21.246Z,4.89
2023-03-11T05:51:51.282Z,4.76
2023-03-11T05:54:19.546Z,4.81
2023-03-11T05:56:50.339Z,4.76
2023-03-11T05:59:20.809Z,4.77
2023-03-11T06:01:57.212Z,4.76
2023-03-11T06:04:26.226Z,4.74
2023-03-11T06:06:54.686Z,4.71
2023-03-11T06:09:25.476Z,4.68
2023-03-11T06:11:54.763Z,4.80
2023-03-11T06:14:25.866Z,4.82
2023-03-11T06:16:53.925Z,4.82
2023-03-11T06:19:24.175Z,4.74
2023-03-11T06:21:53.140Z,4.67
2023-03-11T06:24:21.184Z,4.74
2023-03-11T06:26:52.967Z,4.83
2023-03-11T06:29:24.740Z,4.93
2023-03-11T06:31:53.280Z,4.91
2023-03-11T06:34:23.743Z,4.92
2023-03-11T06:36:54.654Z,4.99
2023-03-11T06:39:22.991Z,5.01
2023-03-11T06:41:52.829Z,5.10
2023-03-11T06:44:21.123Z,5.10
2023-03-11T06:46:49.234Z,5.26
2023-03-11T06:49:18.893Z,5.25
2023-03-11T06:51:48.545Z,5.26
2023-03-11T06:54:17.316Z,5.36
2023-03-11T06:56:46.361Z,5.41
2023-03-11T06:59:15.995Z,5.40
2023-03-11T07:01:44.049Z,5.38
2023-03-11T07:04:12.330Z,5.43
2023-03-11T07:06:43.377Z,5.52
2023-03-11T07:09:22.286Z,5.55
2023-03-11T07:11:50.478Z,5.62
2023-03-11T07:14:26.040Z,5.67
2023-03-11T07:16:57.126Z,5.59
2023-03-11T07:19:40.319Z,5.56
2023-03-11T07:22:08.293Z,5.60
2023-03-11T07:24:37.678Z,5.58
2023-03-11T07:27:06.117Z,5.59
2023-03-11T07:29:34.117Z,5.64
2023-03-11T07:32:02.464Z,5.64
2023-03-11T07:34:30.644Z,5.54
2023-03-11T07:36:58.736Z,5.50
2023-03-11T07:39:26.772Z,5.64
2023-03-11T07:41:56.790Z,5.86
2023-03-11T07:44:32.415Z,6.03
2023-03-11T07:47:04.140Z,6.45
2023-03-11T07:49:32.332Z,6.88
2023-03-11T07:52:00.574Z,7.10
2023-03-11T07:54:28.744Z,7.24
2023-03-11T07:56:58.104Z,7.21
2023-03-11T07:59:26.336Z,7.11
2023-03-11T08:01:54.348Z,7.01
2023-03-11T08:04:22.412Z,6.87
2023-03-11T08:06:50.481Z,6.69
2023-03-11T08:09:18.853Z,6.79
2023-03-11T08:11:49.216Z,6.81
2023-03-11T08:14:18.996Z,6.90
2023-03-11T08:16:47.010Z,6.84
2023-03-11T08:19:15.588Z,6.84
2023-03-11T08:21:43.745Z,6.78
2023-03-11T08:24:15.200Z,6.85
2023-03-11T08:26:49.129Z,6.89
2023-03-11T08:29:24.869Z,7.09
2023-03-11T08:31:55.815Z,7.06
2023-03-11T08:34:24.125Z,7.08
2023-03-11T08:36:52.311Z,7.16
2023-03-11T08:39:20.266Z,7.16
2023-03-11T08:41:49.120Z,7.04
2023-03-11T08:44:17.225Z,7.12
2023-03-11T08:46:46.945Z,7.01
2023-03-11T08:49:15.039Z,6.94
2023-03-11T08:51:43.392Z,6.97
2023-03-11T08:54:11.844Z,7.17
2023-03-11T08:56:39.961Z,7.08
2023-03-11T08:59:13.028Z,7.15
2023-03-11T09:01:42.813Z,7.30
2023-03-11T09:04:12.684Z,7.38
2023-03-11T09:06:44.300Z,7.50
2023-03-11T09:09:14.484Z,7.50
2023-03-11T09:11:42.532Z,7.60
2023-03-11T09:14:10.556Z,7.61
2023-03-11T09:16:38.700Z,7.66
2023-03-11T09:19:07.492Z,7.76
2023-03-11T09:21:37.398Z,7.88
2023-03-11T09:24:07.204Z,7.78
2023-03-11T09:26:36.531Z,7.88
2023-03-11T09:29:04.581Z,7.97
2023-03-11T09:31:32.630Z,7.97
2023-03-11T09:34:00.690Z,8.05
2023-03-11T09:36:28.736Z,8.24
2023-03-11T09:38:58.072Z,8.24
2023-03-11T09:41:55.396Z,8.20
2023-03-11T09:44:32.878Z,8.25
2023-03-11T09:47:48.369Z,8.08
2023-03-11T09:50:45.954Z,8.29
2023-03-11T09:57:20.969Z,8.43
2023-03-11T09:59:49.873Z,8.31
2023-03-11T10:02:22.340Z,8.23
2023-03-11T10:04:58.152Z,8.19
2023-03-11T10:07:34.785Z,8.22
2023-03-11T10:10:03.744Z,8.11
2023-03-11T10:12:53.302Z,8.02
2023-03-11T10:15:32.718Z,7.92
2023-03-11T10:18:19.937Z,8.09
2023-03-11T10:20:55.107Z,8.19
2023-03-11T10:23:31.069Z,8.09
2023-03-11T10:26:09.539Z,8.23
2023-03-11T10:28:47.636Z,8.30
2023-03-11T10:31:27.645Z,8.35
2023-03-11T10:34:04.136Z,8.40
2023-03-11T10:36:41.511Z,8.50
2023-03-11T10:39:18.478Z,8.50
2023-03-11T10:41:55.138Z,8.47
2023-03-11T10:44:30.262Z,8.39
2023-03-11T10:46:58.617Z,8.50
2023-03-11T10:49:27.246Z,8.55
2023-03-11T10:51:57.153Z,8.55
2023-03-11T10:54:29.907Z,8.70
2023-03-11T10:57:01.763Z,8.98
2023-03-11T10:59:48.662Z,9.08
2023-03-11T11:02:26.954Z,9.24
2023-03-11T11:05:28.996Z,9.26
2023-03-11T11:08:09.632Z,9.09
2023-03-11T11:10:43.987Z,9.11
2023-03-11T11:13:21.073Z,9.01
2023-03-11T11:16:00.558Z,9.00
2023-03-11T11:18:35.936Z,8.97
2023-03-11T11:21:08.053Z,8.76
2023-03-11T11:23:43.109Z,9.02
2023-03-11T11:26:20.322Z,9.27
2023-03-11T11:29:13.489Z,9.50
2023-03-11T11:31:46.072Z,9.72
2023-03-11T11:34:31.264Z,9.43
2023-03-11T11:37:02.486Z,9.43
2023-03-11T11:39:41.999Z,9.65
2023-03-11T11:42:14.641Z,9.84
2023-03-11T11:44:47.122Z,10.12
2023-03-11T11:47:21.027Z,10.16
2023-03-11T11:49:55.737Z,10.32
2023-03-11T11:52:28.421Z,10.44
2023-03-11T11:55:04.909Z,10.51
2023-03-11T11:57:33.452Z,10.73
2023-03-11T12:00:06.576Z,10.53
2023-03-11T12:03:03.118Z,10.40
2023-03-11T12:05:34.619Z,10.42
2023-03-11T12:08:12.957Z,10.41
2023-03-11T12:10:48.784Z,10.36
2023-03-11T12:14:02.247Z,10.27
2023-03-11T12:16:43.093Z,10.29
2023-03-11T12:19:30.940Z,10.33
2023-03-11T12:22:52.815Z,10.12
2023-03-11T12:25:34.232Z,10.04
2023-03-11T12:28:36.119Z,10.05
2023-03-11T12:31:10.015Z,10.17
2023-03-11T12:33:42.027Z,10.24
2023-03-11T12:36:25.564Z,10.23
2023-03-11T12:38:55.345Z,10.22
2023-03-11T12:41:36.859Z,10.22
2023-03-11T12:44:23.759Z,10.21
2023-03-11T12:47:23.536Z,10.25
2023-03-11T12:49:55.216Z,10.24
2023-03-11T12:52:31.734Z,10.27
2023-03-11T12:55:37.063Z,10.32
2023-03-11T12:58:42.236Z,10.40
2023-03-11T13:01:48.783Z,10.39
2023-03-11T13:04:41.288Z,10.30
2023-03-11T13:07:52.325Z,10.22
2023-03-11T13:10:37.176Z,10.38
2023-03-11T13:13:33.165Z,10.29
2023-03-11T13:16:41.575Z,10.26
2023-03-11T13:19:52.708Z,10.21
2023-03-11T13:23:00.928Z,10.13
2023-03-11T13:25:40.827Z,10.13
2023-03-11T13:28:52.819Z,10.02
2023-03-11T13:31:49.756Z,9.94
2023-03-11T13:34:25.683Z,9.85
2023-03-11T13:37:17.375Z,9.67
2023-03-11T13:39:55.864Z,9.62
2023-03-11T13:42:30.518Z,9.68
2023-03-11T13:44:59.753Z,9.75
2023-03-11T13:47:31.813Z,9.69
2023-03-11T13:50:06.490Z,9.72
2023-03-11T13:52:40.369Z,9.72
2023-03-11T13:55:20.130Z,9.67
2023-03-11T13:57:52.859Z,9.60
2023-03-11T14:00:24.096Z,9.63
2023-03-11T14:02:56.398Z,9.61
2023-03-11T14:05:27.040Z,9.53
2023-03-11T14:07:55.360Z,9.47
2023-03-11T14:10:31.483Z,9.59
2023-03-11T14:13:17.960Z,9.61
2023-03-11T14:16:10.058Z,9.70
2023-03-11T14:18:43.403Z,9.69
2023-03-11T14:21:16.760Z,9.58
2023-03-11T14:23:48.360Z,9.51
2023-03-11T14:26:22.187Z,9.43
2023-03-11T14:28:53.272Z,9.41
2023-03-11T14:31:26.667Z,9.34
2023-03-11T14:34:04.365Z,9.41
2023-03-11T14:36:42.456Z,9.44
2023-03-11T14:39:30.550Z,9.43
2023-03-11T14:42:07.778Z,9.39
2023-03-11T14:44:43.795Z,9.45
2023-03-11T14:47:22.150Z,9.43
2023-03-11T14:49:53.882Z,9.49
2023-03-11T14:52:34.510Z,9.48
2023-03-11T14:55:04.131Z,9.59
2023-03-11T14:57:39.474Z,9.58
2023-03-11T15:00:16.997Z,9.51
2023-03-11T15:03:00.503Z,9.46
2023-03-11T15:05:42.616Z,9.63
2023-03-11T15:08:11.380Z,9.57
2023-03-11T15:10:39.516Z,9.67
2023-03-11T15:13:14.593Z,9.70
2023-03-11T15:15:42.964Z,9.69
2023-03-11T15:18:24.970Z,9.62
2023-03-11T15:21:15.867Z,9.62
2023-03-11T15:23:48.818Z,9.61
2023-03-11T15:26:25.282Z,9.59
2023-03-11T15:28:59.919Z,9.60
2023-03-11T15:31:33.562Z,9.55
2023-03-11T15:34:31.958Z,9.56
2023-03-11T15:37:07.117Z,9.50
2023-03-11T15:39:50.973Z,9.50
2023-03-11T15:42:24.386Z,9.57
2023-03-11T15:45:17.303Z,9.58
2023-03-11T15:47:46.350Z,9.55
2023-03-11T15:50:27.298Z,9.57
2023-03-11T15:52:59.936Z,9.58
2023-03-11T15:55:28.671Z,9.37
2023-03-11T15:58:04.403Z,9.33
2023-03-11T16:00:33.347Z,9.26
2023-03-11T16:03:01.607Z,9.31
2023-03-11T16:05:30.496Z,9.23
2023-03-11T16:07:59.895Z,9.18
2023-03-11T16:10:28.704Z,9.22
2023-03-11T16:12:57.321Z,9.25
2023-03-11T16:15:28.772Z,9.15
2023-03-11T16:17:59.710Z,9.18
2023-03-11T16:20:34.624Z,9.20
2023-03-11T16:23:04.739Z,9.18
2023-03-11T16:25:37.121Z,9.11
2023-03-11T16:28:05.972Z,9.10
2023-03-11T16:30:36.459Z,9.12
2023-03-11T16:33:05.330Z,9.05
2023-03-11T16:35:33.873Z,9.01
2023-03-11T16:38:03.719Z,9.07
2023-03-11T16:40:32.681Z,9.00
2023-03-11T16:43:04.493Z,8.94
2023-03-11T16:45:33.096Z,8.86
2023-03-11T16:48:01.658Z,8.88
2023-03-11T16:50:30.883Z,8.84
2023-03-11T16:53:00.145Z,8.82
2023-03-11T16:55:31.943Z,8.87
2023-03-11T16:58:00.260Z,8.82
2023-03-11T17:00:31.370Z,8.80
2023-03-11T17:02:59.623Z,8.72
2023-03-11T17:05:27.956Z,8.74
2023-03-11T17:08:00.647Z,8.72
2023-03-11T17:10:30.497Z,8.70
2023-03-11T17:12:58.533Z,8.60
2023-03-11T17:15:26.905Z,8.64
2023-03-11T17:17:54.942Z,8.65
2023-03-11T17:20:23.296Z,8.59
2023-03-11T17:22:51.366Z,8.58
2023-03-11T17:25:20.007Z,8.67
2023-03-11T17:27:50.468Z,8.67
2023-03-11T17:30:35.550Z,8.59
2023-03-11T17:33:05.203Z,8.60
2023-03-11T17:35:33.752Z,8.56
2023-03-11T17:38:02.324Z,8.51
2023-03-11T17:40:31.602Z,8.53
2023-03-11T17:43:01.417Z,8.49
2023-03-11T17:45:29.600Z,8.43
2023-03-11T17:47:57.624Z,8.41
2023-03-11T17:50:26.265Z,8.37
2023-03-11T17:52:56.442Z,8.30
2023-03-11T17:55:24.875Z,8.24
2023-03-11T17:57:53.760Z,8.16
2023-03-11T18:00:25.676Z,8.12
2023-03-11T18:02:53.734Z,8.05
2023-03-11T18:05:23.015Z,8.05
2023-03-11T18:07:51.098Z,7.97
2023-03-11T18:10:19.680Z,7.97
2023-03-11T18:12:48.713Z,7.90
2023-03-11T18:15:19.295Z,7.82
2023-03-11T18:17:49.835Z,7.78
2023-03-11T18:20:18.516Z,7.78
2023-03-11T18:22:47.299Z,7.73
2023-03-11T18:25:15.681Z,7.72
2023-03-11T18:27:44.522Z,7.65
2023-03-11T18:30:15.384Z,7.63
2023-03-11T18:32:44.691Z,7.62
2023-03-11T18:35:14.135Z,7.53
2023-03-11T18:37:42.261Z,7.49
2023-03-11T18:40:12.578Z,7.46
2023-03-11T18:42:45.383Z,7.38
2023-03-11T18:45:13.937Z,7.32
2023-03-11T18:47:42.017Z,7.17
2023-03-11T18:50:13.134Z,7.16
2023-03-11T18:52:41.216Z,7.10
2023-03-11T18:55:10.175Z,7.06
2023-03-11T18:57:40.278Z,7.04
2023-03-11T19:00:11.746Z,7.06
2023-03-11T19:02:40.294Z,6.99
2023-03-11T19:05:09.825Z,7.02
2023-03-11T19:07:39.596Z,7.01
2023-03-11T19:10:09.577Z,7.04
2023-03-11T19:12:38.060Z,6.98
2023-03-11T19:15:07.977Z,6.85
2023-03-11T19:17:36.097Z,6.78
2023-03-11T19:20:08.183Z,6.68
2023-03-11T19:22:37.358Z,6.68
2023-03-11T19:25:11.360Z,6.65
2023-03-11T19:27:40.165Z,6.52
2023-03-11T19:30:10.152Z,6.53
2023-03-11T19:32:40.305Z,6.46
2023-03-11T19:35:10.876Z,6.44
2023-03-11T19:37:39.474Z,6.37
2023-03-11T19:40:11.584Z,6.30
2023-03-11T19:42:39.711Z,6.33
2023-03-11T19:45:09.153Z,6.31
2023-03-11T19:47:37.506Z,6.26
2023-03-11T19:50:06.452Z,6.09
2023-03-11T19:52:36.024Z,5.96
2023-03-11T19:55:04.608Z,5.91
2023-03-11T19:57:34.073Z,5.79
2023-03-11T20:00:02.286Z,5.80
2023-03-11T20:02:35.467Z,5.73
2023-03-11T20:05:03.824Z,5.67
2023-03-11T20:07:32.055Z,5.60
2023-03-11T20:10:00.321Z,5.59
2023-03-11T20:12:28.665Z,5.52
2023-03-11T20:14:58.274Z,5.56
2023-03-11T20:17:26.441Z,5.60
2023-03-11T20:19:54.493Z,5.55
2023-03-11T20:22:22.574Z,5.51
2023-03-11T20:24:50.558Z,5.47
2023-03-11T20:27:18.721Z,5.44
2023-03-11T20:29:46.721Z,5.48
2023-03-11T20:32:16.217Z,5.46
2023-03-11T20:34:44.320Z,5.46
2023-03-11T20:37:12.790Z,5.46
2023-03-11T20:39:40.959Z,5.50
2023-03-11T20:42:09.084Z,5.41
2023-03-11T20:44:37.212Z,5.42
2023-03-11T20:47:05.455Z,5.39
2023-03-11T20:49:35.409Z,5.36
2023-03-11T20:52:03.667Z,5.37
2023-03-11T20:54:32.019Z,5.34
2023-03-11T20:57:00.127Z,5.33
2023-03-11T20:59:29.376Z,5.35
2023-03-11T21:01:57.505Z,5.36
2023-03-11T21:04:25.713Z,5.29
2023-03-11T21:06:55.427Z,5.30
2023-03-11T21:09:24.016Z,5.31
2023-03-11T21:11:55.513Z,5.32
2023-03-11T21:14:23.689Z,5.23
2023-03-11T21:16:51.819Z,5.21
2023-03-11T21:19:22.225Z,5.09
2023-03-11T21:21:51.126Z,5.13
2023-03-11T21:24:21.297Z,5.22
2023-03-11T21:26:50.366Z,5.32
2023-03-11T21:29:18.497Z,5.60
2023-03-11T21:31:48.442Z,5.85
2023-03-11T21:34:16.512Z,6.17
2023-03-11T21:36:44.605Z,6.41
2023-03-11T21:39:14.651Z,6.67
2023-03-11T21:41:44.088Z,6.78
2023-03-11T21:44:14.335Z,6.87
2023-03-11T21:46:42.607Z,6.91
2023-03-11T21:49:11.828Z,6.94
2023-03-11T21:51:40.024Z,6.98
2023-03-11T21:54:09.022Z,6.99
2023-03-11T21:56:37.482Z,6.98
2023-03-11T21:59:07.045Z,7.02
2023-03-11T22:01:36.576Z,7.06
2023-03-11T22:04:05.377Z,7.10
2023-03-11T22:06:39.307Z,7.16
2023-03-11T22:09:08.070Z,7.12
2023-03-11T22:11:40.066Z,7.10
2023-03-11T22:14:09.773Z,7.09
2023-03-11T22:16:38.756Z,7.12
2023-03-11T22:19:08.739Z,7.12
2023-03-11T22:21:36.948Z,7.15
2023-03-11T22:24:05.634Z,7.16
2023-03-11T22:26:33.689Z,7.16
2023-03-11T22:29:03.881Z,7.20
2023-03-11T22:31:33.719Z,7.10
2023-03-11T22:34:01.849Z,7.09
2023-03-11T22:36:29.976Z,7.09
2023-03-11T22:38:58.149Z,7.04
2023-03-11T22:41:26.271Z,7.03
2023-03-11T22:43:54.447Z,7.02
2023-03-11T22:46:22.669Z,7.08
2023-03-11T22:48:52.008Z,7.00
2023-03-11T22:51:20.001Z,6.95
2023-03-11T22:53:48.679Z,6.97
2023-03-11T22:56:19.253Z,6.96
2023-03-11T22:58:47.688Z,6.83
2023-03-11T23:01:16.506Z,6.90
2023-03-11T23:03:45.132Z,6.86
2023-03-11T23:06:18.109Z,6.88
2023-03-11T23:08:47.460Z,6.89
2023-03-11T23:11:20.056Z,6.94
2023-03-11T23:13:49.718Z,7.00
2023-03-11T23:16:20.358Z,6.95
2023-03-11T23:18:52.120Z,6.87
2023-03-11T23:21:24.402Z,6.93
2023-03-11T23:23:54.424Z,6.89
2023-03-11T23:26:23.338Z,6.87
2023-03-11T23:28:52.016Z,6.87
2023-03-11T23:31:22.004Z,6.89
2023-03-11T23:33:50.768Z,6.85
2023-03-11T23:36:22.295Z,6.89
2023-03-11T23:38:51.729Z,6.90
2023-03-11T23:41:23.607Z,6.84
2023-03-11T23:43:52.131Z,6.78
2023-03-11T23:46:20.638Z,6.76
2023-03-11T23:48:48.701Z,6.72
2023-03-11T23:51:16.716Z,6.73
2023-03-11T23:53:46.096Z,6.69
2023-03-11T23:56:17.789Z,6.66
2023-03-11T23:58:46.434Z,6.66
